createdAt,value
2022-10-17T00:01:47.739Z,13.03
2022-10-17T00:03:55.845Z,12.98
2022-10-17T00:06:09.401Z,12.90
2022-10-17T00:08:20.236Z,12.87
2022-10-17T00:10:28.891Z,12.83
2022-10-17T00:12:38.081Z,12.83
2022-10-17T00:14:46.418Z,12.85
2022-10-17T00:16:57.188Z,12.81
2022-10-17T00:19:05.614Z,12.78
2022-10-17T00:21:19.445Z,12.82
2022-10-17T00:23:28.891Z,12.81
2022-10-17T00:25:37.577Z,12.86
2022-10-17T00:27:45.939Z,12.96
2022-10-17T00:29:56.323Z,13.18
2022-10-17T00:32:07.333Z,13.27
2022-10-17T00:34:15.479Z,13.20
2022-10-17T00:36:26.442Z,13.16
2022-10-17T00:38:35.235Z,13.29
2022-10-17T00:40:43.878Z,13.34
2022-10-17T00:42:53.379Z,13.30
2022-10-17T00:45:10.189Z,13.24
2022-10-17T00:47:24.260Z,13.14
2022-10-17T00:49:37.513Z,12.97
2022-10-17T00:51:49.722Z,12.85
2022-10-17T00:53:58.780Z,12.83
2022-10-17T00:56:07.182Z,12.84
2022-10-17T00:58:15.704Z,12.84
2022-10-17T01:00:24.548Z,12.89
2022-10-17T01:02:35.783Z,13.04
2022-10-17T01:04:46.063Z,13.14
2022-10-17T01:06:54.278Z,12.98
2022-10-17T01:09:02.371Z,12.79
2022-10-17T01:11:19.270Z,12.74
2022-10-17T01:13:37.306Z,12.71
2022-10-17T01:15:58.093Z,12.69
2022-10-17T01:18:16.099Z,12.69
2022-10-17T01:20:49.192Z,12.66
2022-10-17T01:23:10.463Z,12.62
2022-10-17T01:25:32.144Z,12.56
2022-10-17T01:28:04.184Z,12.52
2022-10-17T01:30:38.908Z,12.50
2022-10-17T01:32:57.816Z,12.41
2022-10-17T01:35:14.270Z,12.33
2022-10-17T01:37:30.284Z,12.34
2022-10-17T01:39:47.747Z,12.36
2022-10-17T01:42:05.401Z,12.44
2022-10-17T01:44:18.887Z,12.59
2022-10-17T01:46:31.660Z,12.59
2022-10-17T01:48:45.919Z,12.39
2022-10-17T01:51:01.249Z,12.34
2022-10-17T01:53:15.820Z,12.31
2022-10-17T01:55:29.304Z,12.31
2022-10-17T01:57:41.453Z,12.44
2022-10-17T02:00:04.261Z,12.34
2022-10-17T02:02:23.162Z,12.28
2022-10-17T02:04:34.412Z,12.25
2022-10-17T02:06:42.716Z,12.14
2022-10-17T02:08:55.170Z,12.05
2022-10-17T02:11:10.425Z,12.01
2022-10-17T02:13:29.605Z,11.97
2022-10-17T02:16:02.795Z,11.96
2022-10-17T02:18:29.609Z,12.00
2022-10-17T02:20:49.190Z,12.06
2022-10-17T02:23:02.173Z,11.95
2022-10-17T02:25:16.888Z,11.92
2022-10-17T02:27:36.474Z,11.97
2022-10-17T02:29:52.417Z,12.02
2022-10-17T02:32:06.096Z,12.00
2022-10-17T02:34:19.990Z,11.96
2022-10-17T02:36:37.887Z,11.89
2022-10-17T02:38:48.717Z,11.82
2022-10-17T02:40:57.669Z,11.75
2022-10-17T02:43:06.097Z,11.67
2022-10-17T02:45:15.221Z,11.60
2022-10-17T02:47:29.905Z,11.61
2022-10-17T02:49:43.286Z,11.63
2022-10-17T02:51:59.024Z,11.55
2022-10-17T02:54:13.828Z,11.53
2022-10-17T02:56:24.138Z,11.50
2022-10-17T02:58:36.739Z,11.55
2022-10-17T03:00:45.876Z,11.50
2022-10-17T03:02:56.835Z,11.49
2022-10-17T03:05:05.259Z,11.44
2022-10-17T03:07:16.521Z,11.40
2022-10-17T03:09:25.653Z,11.39
2022-10-17T03:11:34.243Z,11.42
2022-10-17T03:13:42.809Z,11.36
2022-10-17T03:15:52.007Z,11.34
2022-10-17T03:18:01.643Z,11.34
2022-10-17T03:20:11.420Z,11.28
2022-10-17T03:22:22.564Z,11.27
2022-10-17T03:24:30.978Z,11.20
2022-10-17T03:26:39.992Z,11.15
2022-10-17T03:28:51.961Z,11.21
2022-10-17T03:31:03.375Z,11.18
2022-10-17T03:33:11.617Z,11.07
2022-10-17T03:35:20.293Z,11.01
2022-10-17T03:37:35.193Z,10.96
2022-10-17T03:39:43.469Z,10.95
2022-10-17T03:41:51.777Z,10.94
2022-10-17T03:44:00.028Z,10.91
2022-10-17T03:46:09.850Z,10.90
2022-10-17T03:48:19.424Z,10.89
2022-10-17T03:50:27.907Z,10.86
2022-10-17T03:52:40.023Z,10.83
2022-10-17T03:54:48.458Z,10.80
2022-10-17T03:56:59.261Z,10.74
2022-10-17T03:59:08.245Z,10.74
2022-10-17T04:01:22.180Z,10.73
2022-10-17T04:03:30.943Z,10.78
2022-10-17T04:05:39.205Z,10.79
2022-10-17T04:07:49.939Z,10.82
2022-10-17T04:10:01.849Z,10.88
2022-10-17T04:12:10.615Z,10.89
2022-10-17T04:14:19.029Z,10.88
2022-10-17T04:16:27.745Z,10.84
2022-10-17T04:18:42.518Z,10.76
2022-10-17T04:20:51.073Z,10.82
2022-10-17T04:23:02.133Z,10.82
2022-10-17T04:25:11.308Z,10.82
2022-10-17T04:27:22.761Z,10.76
2022-10-17T04:29:31.406Z,10.76
2022-10-17T04:31:48.185Z,10.86
2022-10-17T04:34:01.347Z,10.76
2022-10-17T04:36:11.344Z,10.76
2022-10-17T04:38:26.233Z,10.73
2022-10-17T04:40:36.823Z,10.66
2022-10-17T04:42:45.365Z,10.71
2022-10-17T04:44:56.928Z,10.70
2022-10-17T04:47:07.436Z,10.69
2022-10-17T04:49:16.488Z,10.79
2022-10-17T04:51:28.388Z,10.76
2022-10-17T04:54:02.238Z,10.76
2022-10-17T04:56:15.258Z,10.70
2022-10-17T04:58:25.426Z,10.70
2022-10-17T05:00:33.760Z,10.70
2022-10-17T05:02:46.885Z,10.65
2022-10-17T05:04:55.943Z,10.65
2022-10-17T05:07:04.338Z,10.57
2022-10-17T05:09:25.059Z,10.51
2022-10-17T05:11:33.661Z,10.50
2022-10-17T05:13:42.488Z,10.43
2022-10-17T05:15:50.874Z,10.52
2022-10-17T05:17:59.468Z,10.53
2022-10-17T05:20:11.897Z,10.57
2022-10-17T05:22:21.267Z,10.61
2022-10-17T05:24:33.139Z,10.63
2022-10-17T05:26:41.972Z,10.66
2022-10-17T05:28:52.715Z,10.68
2022-10-17T05:31:11.765Z,10.69
2022-10-17T05:33:22.073Z,10.74
2022-10-17T05:35:30.630Z,10.83
2022-10-17T05:37:39.377Z,10.97
2022-10-17T05:39:51.567Z,11.06
2022-10-17T05:42:01.267Z,11.09
2022-10-17T05:44:10.085Z,11.10
2022-10-17T05:46:25.037Z,11.13
2022-10-17T05:48:33.377Z,11.09
2022-10-17T05:50:43.123Z,11.00
2022-10-17T05:52:57.768Z,10.93
2022-10-17T05:55:10.425Z,10.96
2022-10-17T05:57:18.617Z,10.91
2022-10-17T05:59:29.165Z,10.98
2022-10-17T06:01:48.334Z,11.06
2022-10-17T06:03:57.684Z,11.01
2022-10-17T06:06:08.452Z,11.13
2022-10-17T06:08:18.153Z,11.15
2022-10-17T06:10:29.408Z,11.20
2022-10-17T06:12:37.874Z,11.11
2022-10-17T06:14:46.061Z,11.12
2022-10-17T06:16:55.528Z,11.12
2022-10-17T06:19:03.996Z,11.10
2022-10-17T06:21:18.165Z,11.14
2022-10-17T06:23:28.967Z,11.04
2022-10-17T06:25:44.635Z,11.11
2022-10-17T06:30:23.309Z,11.06
2022-10-17T06:32:31.880Z,11.13
2022-10-17T06:34:40.659Z,11.17
2022-10-17T06:36:49.090Z,11.16
2022-10-17T06:38:59.310Z,11.02
2022-10-17T06:41:20.439Z,10.96
2022-10-17T06:43:30.730Z,10.83
2022-10-17T06:45:58.751Z,10.75
2022-10-17T06:48:20.627Z,10.85
2022-10-17T06:50:44.647Z,10.75
2022-10-17T06:52:57.610Z,10.81
2022-10-17T06:55:24.345Z,10.86
2022-10-17T06:57:53.393Z,10.83
2022-10-17T07:00:23.681Z,10.88
2022-10-17T07:02:35.454Z,10.93
2022-10-17T07:04:43.729Z,11.12
2022-10-17T07:06:54.011Z,11.16
2022-10-17T07:09:06.819Z,11.14
2022-10-17T07:11:20.144Z,11.28
2022-10-17T07:13:38.120Z,11.34
2022-10-17T07:15:47.195Z,11.39
2022-10-17T07:17:55.679Z,11.66
2022-10-17T07:20:04.118Z,11.93
2022-10-17T07:22:15.705Z,11.92
2022-10-17T07:24:27.820Z,11.94
2022-10-17T07:26:43.334Z,11.97
2022-10-17T07:28:56.835Z,12.07
2022-10-17T07:31:27.622Z,12.21
2022-10-17T07:33:36.054Z,12.27
2022-10-17T07:35:44.687Z,12.35
2022-10-17T07:37:52.861Z,12.40
2022-10-17T07:40:02.706Z,12.49
2022-10-17T07:42:12.753Z,12.50
2022-10-17T07:44:23.693Z,12.69
2022-10-17T07:46:33.775Z,12.67
2022-10-17T07:48:42.991Z,12.78
2022-10-17T07:50:52.030Z,12.85
2022-10-17T07:53:00.303Z,12.85
2022-10-17T07:55:10.264Z,12.91
2022-10-17T07:57:18.540Z,12.98
2022-10-17T07:59:29.495Z,13.06
2022-10-17T08:01:38.101Z,13.09
2022-10-17T08:03:48.783Z,13.30
2022-10-17T08:06:00.823Z,13.36
2022-10-17T08:08:08.917Z,13.41
2022-10-17T08:10:18.741Z,13.52
2022-10-17T08:12:27.091Z,13.71
2022-10-17T08:14:39.492Z,13.74
2022-10-17T08:16:47.985Z,13.86
2022-10-17T08:18:56.247Z,13.96
2022-10-17T08:21:06.355Z,14.08
2022-10-17T08:23:15.059Z,14.20
2022-10-17T08:25:23.608Z,14.26
2022-10-17T08:27:31.815Z,14.35
2022-10-17T08:29:43.005Z,14.37
2022-10-17T08:31:54.173Z,14.22
2022-10-17T08:34:08.817Z,14.31
2022-10-17T08:36:18.809Z,14.50
2022-10-17T08:38:27.939Z,14.43
2022-10-17T08:40:38.531Z,14.18
2022-10-17T08:43:01.540Z,14.19
2022-10-17T08:45:20.447Z,14.10
2022-10-17T08:47:32.757Z,14.14
2022-10-17T08:49:48.686Z,14.43
2022-10-17T08:52:01.952Z,14.54
2022-10-17T08:54:18.424Z,14.76
2022-10-17T08:56:48.880Z,15.29
2022-10-17T08:58:57.695Z,16.40
2022-10-17T09:01:22.699Z,17.40
2022-10-17T09:03:42.393Z,18.70
2022-10-17T09:05:56.669Z,18.91
2022-10-17T09:08:21.815Z,19.90
2022-10-17T09:10:41.119Z,19.92
2022-10-17T09:12:55.461Z,20.81
2022-10-17T09:15:24.240Z,22.15
2022-10-17T09:17:45.073Z,20.49
2022-10-17T09:20:02.267Z,20.65
2022-10-17T09:22:16.340Z,21.60
2022-10-17T09:24:30.935Z,22.26
2022-10-17T09:26:40.042Z,21.97
2022-10-17T09:28:55.259Z,22.03
2022-10-17T09:31:06.948Z,21.50
2022-10-17T09:33:34.880Z,22.87
2022-10-17T09:35:45.161Z,22.31
2022-10-17T09:37:53.911Z,22.28
2022-10-17T09:40:03.169Z,22.99
2022-10-17T09:42:17.560Z,22.82
2022-10-17T09:44:28.121Z,23.61
2022-10-17T09:46:41.053Z,22.83
2022-10-17T09:48:55.023Z,23.37
2022-10-17T09:51:15.168Z,24.46
2022-10-17T09:53:36.586Z,24.12
2022-10-17T09:55:48.518Z,24.84
2022-10-17T09:58:01.688Z,22.88
2022-10-17T10:00:10.981Z,21.61
2022-10-17T10:02:24.436Z,21.50
2022-10-17T10:04:46.741Z,20.83
2022-10-17T10:07:09.897Z,20.64
2022-10-17T10:09:27.633Z,20.62
2022-10-17T10:11:50.585Z,21.47
2022-10-17T10:14:13.936Z,22.17
2022-10-17T10:16:27.273Z,22.14
2022-10-17T10:18:39.217Z,22.40
2022-10-17T10:20:50.162Z,22.92
2022-10-17T10:23:17.425Z,23.44
2022-10-17T10:25:25.610Z,23.23
2022-10-17T10:27:34.404Z,23.45
2022-10-17T10:29:45.657Z,22.53
2022-10-17T10:31:55.021Z,20.97
2022-10-17T10:34:08.454Z,20.38
2022-10-17T10:36:22.108Z,20.32
2022-10-17T10:38:31.275Z,20.46
2022-10-17T10:40:47.492Z,20.30
2022-10-17T10:43:02.533Z,20.34
2022-10-17T10:45:42.822Z,20.28
2022-10-17T10:47:57.272Z,20.44
2022-10-17T10:50:24.362Z,20.76
2022-10-17T10:52:42.251Z,21.08
2022-10-17T10:54:59.460Z,21.35
2022-10-17T10:57:10.822Z,21.31
2022-10-17T10:59:23.838Z,21.40
2022-10-17T11:01:38.178Z,21.62
2022-10-17T11:03:59.327Z,21.40
2022-10-17T11:06:15.898Z,21.49
2022-10-17T11:08:32.942Z,21.31
2022-10-17T11:10:47.829Z,21.48
2022-10-17T11:13:03.517Z,21.46
2022-10-17T11:15:23.601Z,21.22
2022-10-17T11:17:38.625Z,20.74
2022-10-17T11:19:53.041Z,20.61
2022-10-17T11:22:12.517Z,20.51
2022-10-17T11:24:27.787Z,20.57
2022-10-17T11:26:43.530Z,20.44
2022-10-17T11:28:52.077Z,20.49
2022-10-17T11:31:07.973Z,20.52
2022-10-17T11:33:21.627Z,20.59
2022-10-17T11:35:33.827Z,20.69
2022-10-17T11:37:49.054Z,20.90
2022-10-17T11:40:05.536Z,20.98
2022-10-17T11:42:17.090Z,21.14
2022-10-17T11:44:30.526Z,21.31
2022-10-17T11:46:40.396Z,21.24
2022-10-17T11:49:04.199Z,21.18
2022-10-17T11:53:53.936Z,21.24
2022-10-17T11:56:05.947Z,21.46
2022-10-17T11:58:37.437Z,21.54
2022-10-17T12:01:03.798Z,21.62
2022-10-17T12:03:26.829Z,21.80
2022-10-17T12:05:41.998Z,21.94
2022-10-17T12:07:54.274Z,22.07
2022-10-17T12:10:11.678Z,22.30
2022-10-17T12:12:32.581Z,22.46
2022-10-17T12:14:43.930Z,22.53
2022-10-17T12:16:52.166Z,22.70
2022-10-17T12:19:25.146Z,22.81
2022-10-17T12:22:05.172Z,23.04
2022-10-17T12:24:31.289Z,22.95
2022-10-17T12:26:40.292Z,23.08
2022-10-17T12:28:52.306Z,23.16
2022-10-17T12:31:05.942Z,23.15
2022-10-17T12:33:23.893Z,23.15
2022-10-17T12:35:34.927Z,23.24
2022-10-17T12:38:22.191Z,23.14
2022-10-17T12:40:52.989Z,23.20
2022-10-17T12:43:01.554Z,23.20
2022-10-17T12:45:49.449Z,23.34
2022-10-17T12:48:00.416Z,23.43
2022-10-17T12:50:50.852Z,23.42
2022-10-17T12:53:08.652Z,23.49
2022-10-17T12:55:20.265Z,23.49
2022-10-17T12:57:36.636Z,23.47
2022-10-17T12:59:47.056Z,23.42
2022-10-17T13:02:01.061Z,23.51
2022-10-17T13:04:13.784Z,23.58
2022-10-17T13:06:25.771Z,23.58
2022-10-17T13:08:36.786Z,23.58
2022-10-17T13:10:51.763Z,23.63
2022-10-17T13:13:08.860Z,23.80
2022-10-17T13:15:21.703Z,23.73
2022-10-17T13:17:31.506Z,23.67
2022-10-17T13:19:47.933Z,23.64
2022-10-17T13:22:05.312Z,23.70
2022-10-17T13:24:24.970Z,23.58
2022-10-17T13:26:33.616Z,23.56
2022-10-17T13:28:42.178Z,23.63
2022-10-17T13:30:52.786Z,23.58
2022-10-17T13:33:02.151Z,23.68
2022-10-17T13:35:17.276Z,23.64
2022-10-17T13:37:25.507Z,23.76
2022-10-17T13:40:00.362Z,23.64
2022-10-17T13:42:17.422Z,23.67
2022-10-17T13:44:28.195Z,23.75
2022-10-17T13:46:39.102Z,23.69
2022-10-17T13:48:49.002Z,23.62
2022-10-17T13:51:04.492Z,23.65
2022-10-17T13:53:33.314Z,23.70
2022-10-17T13:55:41.952Z,23.47
2022-10-17T13:57:52.881Z,23.39
2022-10-17T14:00:09.926Z,23.09
2022-10-17T14:02:24.525Z,23.20
2022-10-17T14:04:50.269Z,23.13
2022-10-17T14:07:03.460Z,23.09
2022-10-17T14:09:24.155Z,23.01
2022-10-17T14:11:38.816Z,23.00
2022-10-17T14:13:53.528Z,23.00
2022-10-17T14:16:06.329Z,22.93
2022-10-17T14:18:23.249Z,22.90
2022-10-17T14:21:08.220Z,22.78
2022-10-17T14:23:22.790Z,22.75
2022-10-17T14:25:35.505Z,22.84
2022-10-17T14:28:03.689Z,22.64
2022-10-17T14:30:55.878Z,22.59
2022-10-17T14:33:06.654Z,22.66
2022-10-17T14:35:41.149Z,22.53
2022-10-17T14:37:50.815Z,22.44
2022-10-17T14:40:03.998Z,22.38
2022-10-17T14:42:21.940Z,22.29
2022-10-17T14:44:33.449Z,22.29
2022-10-17T14:46:50.690Z,22.16
2022-10-17T14:49:05.469Z,22.10
2022-10-17T14:51:17.143Z,22.09
2022-10-17T14:53:25.491Z,22.04
2022-10-17T14:55:38.212Z,22.00
2022-10-17T14:57:48.419Z,22.02
2022-10-17T14:59:58.848Z,22.01
2022-10-17T15:02:07.169Z,22.01
2022-10-17T15:04:15.653Z,21.92
2022-10-17T15:06:27.655Z,21.85
2022-10-17T15:08:38.567Z,21.85
2022-10-17T15:10:51.133Z,21.79
2022-10-17T15:13:26.204Z,21.81
2022-10-17T15:15:28.583Z,21.75
2022-10-17T15:17:37.238Z,21.72
2022-10-17T15:19:45.728Z,21.67
2022-10-17T15:21:54.439Z,21.65
2022-10-17T15:24:04.534Z,21.59
2022-10-17T15:26:20.044Z,21.52
2022-10-17T15:28:28.696Z,21.47
2022-10-17T15:30:39.992Z,21.45
2022-10-17T15:32:48.367Z,21.46
2022-10-17T15:34:56.559Z,21.39
2022-10-17T15:37:04.802Z,21.33
2022-10-17T15:39:15.095Z,21.29
2022-10-17T15:41:27.886Z,21.21
2022-10-17T15:43:36.144Z,21.21
2022-10-17T15:45:44.570Z,21.07
2022-10-17T15:47:55.619Z,21.07
2022-10-17T15:50:04.924Z,21.03
2022-10-17T15:52:13.730Z,20.96
2022-10-17T15:54:22.377Z,20.92
2022-10-17T15:56:36.524Z,20.74
2022-10-17T15:58:44.737Z,20.70
2022-10-17T16:00:52.821Z,20.67
2022-10-17T16:03:03.265Z,20.60
2022-10-17T16:05:17.196Z,20.48
2022-10-17T16:07:25.832Z,20.45
2022-10-17T16:09:34.557Z,20.39
2022-10-17T16:11:46.743Z,20.30
2022-10-17T16:13:57.397Z,20.05
2022-10-17T16:16:05.441Z,19.92
2022-10-17T16:18:13.806Z,19.81
2022-10-17T16:20:22.771Z,19.66
2022-10-17T16:22:36.775Z,19.50
2022-10-17T16:24:45.091Z,19.34
2022-10-17T16:26:55.971Z,19.22
2022-10-17T16:29:05.106Z,19.07
2022-10-17T16:31:21.325Z,19.19
2022-10-17T16:33:31.614Z,19.16
2022-10-17T16:35:39.835Z,19.02
2022-10-17T16:37:48.239Z,18.92
2022-10-17T16:39:56.538Z,18.75
2022-10-17T16:42:07.327Z,18.60
2022-10-17T16:44:18.026Z,18.46
2022-10-17T16:46:27.404Z,18.34
2022-10-17T16:48:35.654Z,18.18
2022-10-17T16:50:43.905Z,18.00
2022-10-17T16:52:52.344Z,18.13
2022-10-17T16:55:00.362Z,18.25
2022-10-17T16:57:11.558Z,18.08
2022-10-17T16:59:19.783Z,17.87
2022-10-17T17:01:29.536Z,17.80
2022-10-17T17:03:38.811Z,17.80
2022-10-17T17:05:52.734Z,17.70
2022-10-17T17:08:01.132Z,17.81
2022-10-17T17:10:10.261Z,17.68
2022-10-17T17:12:21.008Z,17.60
2022-10-17T17:14:29.548Z,17.47
2022-10-17T17:16:38.694Z,17.35
2022-10-17T17:18:48.070Z,17.26
2022-10-17T17:21:01.484Z,17.22
2022-10-17T17:23:13.700Z,17.14
2022-10-17T17:25:24.950Z,17.13
2022-10-17T17:27:36.021Z,17.06
2022-10-17T17:29:44.341Z,17.02
2022-10-17T17:31:53.591Z,17.02
2022-10-17T17:34:03.004Z,16.99
2022-10-17T17:36:13.417Z,16.91
2022-10-17T17:38:21.561Z,16.90
2022-10-17T17:40:30.002Z,16.88
2022-10-17T17:42:40.986Z,16.86
2022-10-17T17:44:49.153Z,16.84
2022-10-17T17:46:57.241Z,16.80
2022-10-17T17:49:05.362Z,16.79
2022-10-17T17:51:16.760Z,16.75
2022-10-17T17:53:25.667Z,16.79
2022-10-17T17:55:34.435Z,16.82
2022-10-17T17:57:46.667Z,16.78
2022-10-17T17:59:55.318Z,16.82
2022-10-17T18:02:06.639Z,16.66
2022-10-17T18:04:17.114Z,16.53
2022-10-17T18:06:26.542Z,16.49
2022-10-17T18:08:35.743Z,16.54
2022-10-17T18:10:44.833Z,16.49
2022-10-17T18:12:56.756Z,16.44
2022-10-17T18:15:06.679Z,16.49
2022-10-17T18:17:16.691Z,16.53
2022-10-17T18:19:28.634Z,16.62
2022-10-17T18:21:38.290Z,16.60
2022-10-17T18:23:49.852Z,16.54
2022-10-17T18:26:01.092Z,16.49
2022-10-17T18:28:12.295Z,16.54
2022-10-17T18:30:22.541Z,16.50
2022-10-17T18:32:35.164Z,16.51
2022-10-17T18:34:46.797Z,16.53
2022-10-17T18:36:56.249Z,16.41
2022-10-17T18:39:05.906Z,16.28
2022-10-17T18:41:16.358Z,16.13
2022-10-17T18:43:28.214Z,16.10
2022-10-17T18:45:37.249Z,16.04
2022-10-17T18:47:47.594Z,16.09
2022-10-17T18:49:56.411Z,16.05
2022-10-17T18:52:04.988Z,16.04
2022-10-17T18:54:17.280Z,16.08
2022-10-17T18:56:26.604Z,16.04
2022-10-17T18:58:37.256Z,15.91
2022-10-17T19:00:48.697Z,15.80
2022-10-17T19:02:56.602Z,15.85
2022-10-17T19:05:04.674Z,15.94
2022-10-17T19:07:13.029Z,15.85
2022-10-17T19:09:21.600Z,15.89
2022-10-17T19:11:31.658Z,15.94
2022-10-17T19:13:43.388Z,15.83
2022-10-17T19:15:51.621Z,15.72
2022-10-17T19:18:00.098Z,15.71
2022-10-17T19:20:09.648Z,15.71
2022-10-17T19:22:18.041Z,15.77
2022-10-17T19:24:28.070Z,15.77
2022-10-17T19:26:39.895Z,15.74
2022-10-17T19:28:52.418Z,15.71
2022-10-17T19:31:00.882Z,15.71
2022-10-17T19:33:09.499Z,15.64
2022-10-17T19:35:17.876Z,15.54
2022-10-17T19:37:25.978Z,15.49
2022-10-17T19:39:34.535Z,15.53
2022-10-17T19:41:43.414Z,15.64
2022-10-17T19:43:54.796Z,15.57
2022-10-17T19:46:05.571Z,15.40
2022-10-17T19:48:13.844Z,15.32
2022-10-17T19:50:22.485Z,15.43
2022-10-17T19:52:31.200Z,15.42
2022-10-17T19:54:42.234Z,15.54
2022-10-17T19:56:56.737Z,15.58
2022-10-17T19:59:09.313Z,15.47
2022-10-17T20:01:22.713Z,15.39
2022-10-17T20:03:31.907Z,15.30
2022-10-17T20:05:43.412Z,15.25
2022-10-17T20:07:51.692Z,15.18
2022-10-17T20:10:00.271Z,15.12
2022-10-17T20:12:08.824Z,15.06
2022-10-17T20:14:20.501Z,14.98
2022-10-17T20:16:31.585Z,15.08
2022-10-17T20:18:40.932Z,15.20
2022-10-17T20:20:49.993Z,15.18
2022-10-17T20:22:58.857Z,15.17
2022-10-17T20:25:08.013Z,15.18
2022-10-17T20:27:16.076Z,15.22
2022-10-17T20:29:28.186Z,15.30
2022-10-17T20:31:36.593Z,15.30
2022-10-17T20:33:46.671Z,15.29
2022-10-17T20:35:54.991Z,15.37
2022-10-17T20:38:03.607Z,15.30
2022-10-17T20:42:41.530Z,15.24
2022-10-17T20:44:52.560Z,15.21
2022-10-17T20:47:02.480Z,15.18
2022-10-17T20:49:12.176Z,15.09
2022-10-17T20:51:20.826Z,15.02
2022-10-17T20:53:37.131Z,14.97
2022-10-17T20:55:46.984Z,14.87
2022-10-17T20:57:56.368Z,14.80
2022-10-17T21:00:08.785Z,14.76
2022-10-17T21:02:18.075Z,14.77
2022-10-17T21:04:46.285Z,14.72
2022-10-17T21:06:55.111Z,14.59
2022-10-17T21:09:04.273Z,14.48
2022-10-17T21:11:15.180Z,14.42
2022-10-17T21:13:24.687Z,14.33
2022-10-17T21:15:35.274Z,14.24
2022-10-17T21:17:46.115Z,14.12
2022-10-17T21:19:54.694Z,14.08
2022-10-17T21:22:02.797Z,13.96
2022-10-17T21:24:14.348Z,13.91
2022-10-17T21:26:22.890Z,13.88
2022-10-17T21:28:31.228Z,13.85
2022-10-17T21:30:42.305Z,13.77
2022-10-17T21:32:52.095Z,13.74
2022-10-17T21:35:00.773Z,13.71
2022-10-17T21:37:09.069Z,13.63
2022-10-17T21:39:18.559Z,13.58
2022-10-17T21:41:29.099Z,13.54
2022-10-17T21:43:38.496Z,13.52
2022-10-17T21:45:49.566Z,13.54
2022-10-17T21:48:12.554Z,13.54
2022-10-17T21:50:21.191Z,13.63
2022-10-17T21:52:29.972Z,13.76
2022-10-17T21:54:38.205Z,13.76
2022-10-17T21:56:46.944Z,13.73
2022-10-17T21:58:56.137Z,13.72
2022-10-17T22:01:12.229Z,13.58
2022-10-17T22:03:20.393Z,13.51
2022-10-17T22:05:28.383Z,13.48
2022-10-17T22:07:36.897Z,13.45
2022-10-17T22:09:47.885Z,13.44
2022-10-17T22:11:58.792Z,13.45
2022-10-17T22:14:11.652Z,13.50
2022-10-17T22:16:22.512Z,13.51
2022-10-17T22:18:31.906Z,13.55
2022-10-17T22:20:41.577Z,13.57
2022-10-17T22:22:49.742Z,13.57
2022-10-17T22:24:59.806Z,13.47
2022-10-17T22:27:10.505Z,13.48
2022-10-17T22:29:19.251Z,13.45
2022-10-17T22:31:30.119Z,13.47
2022-10-17T22:33:40.138Z,13.52
2022-10-17T22:35:49.190Z,13.47
2022-10-17T22:37:57.694Z,13.47
2022-10-17T22:40:06.030Z,13.49
2022-10-17T22:42:14.283Z,13.44
2022-10-17T22:44:22.568Z,13.50
2022-10-17T22:46:33.598Z,13.49
2022-10-17T22:48:42.928Z,13.44
2022-10-17T22:50:52.545Z,13.46
2022-10-17T22:53:00.638Z,13.42
2022-10-17T22:55:12.401Z,13.43
2022-10-17T22:57:20.589Z,13.30
2022-10-17T22:59:30.304Z,13.34
2022-10-17T23:01:41.454Z,13.32
2022-10-17T23:03:51.195Z,13.23
2022-10-17T23:06:00.353Z,13.28
2022-10-17T23:08:08.978Z,13.16
2022-10-17T23:10:18.845Z,13.16
2022-10-17T23:12:27.302Z,13.16
2022-10-17T23:14:37.621Z,13.15
2022-10-17T23:16:50.432Z,13.09
2022-10-17T23:18:58.588Z,13.11
2022-10-17T23:21:07.012Z,13.06
2022-10-17T23:23:15.735Z,12.94
2022-10-17T23:25:26.046Z,12.90
2022-10-17T23:27:34.253Z,12.90
2022-10-17T23:29:44.035Z,12.91
2022-10-17T23:31:56.915Z,12.86
2022-10-17T23:34:05.125Z,12.87
2022-10-17T23:36:14.781Z,12.84
2022-10-17T23:38:22.957Z,12.73
2022-10-17T23:40:32.603Z,12.70
2022-10-17T23:42:44.104Z,12.65
2022-10-17T23:44:52.396Z,12.63
2022-10-17T23:47:05.038Z,12.57
2022-10-17T23:49:13.958Z,12.56
2022-10-17T23:51:24.329Z,12.51
2022-10-17T23:53:32.611Z,12.51
2022-10-17T23:55:41.070Z,12.53
2022-10-17T23:57:51.905Z,12.53
